createdAt,value
2018-02-20T00:02:07.945Z,33.10
2018-02-20T00:04:35.691Z,33.20
2018-02-20T00:07:03.455Z,33.50
2018-02-20T00:09:31.281Z,33.60
2018-02-20T00:11:59.049Z,33.40
2018-02-20T00:14:26.886Z,33.00
2018-02-20T00:16:55.512Z,32.80
2018-02-20T00:19:23.269Z,33.10
2018-02-20T00:21:51.277Z,33.70
2018-02-20T00:24:19.107Z,33.30
2018-02-20T00:26:46.931Z,33.50
2018-02-20T00:29:14.707Z,33.50
2018-02-20T00:31:43.418Z,33.40
2018-02-20T00:34:12.021Z,33.50
2018-02-20T00:36:39.868Z,33.40
2018-02-20T00:39:08.472Z,33.90
2018-02-20T00:41:36.246Z,33.80
2018-02-20T00:44:04.045Z,33.90
2018-02-20T00:46:31.882Z,34.30
2018-02-20T00:48:59.685Z,35.20
2018-02-20T00:51:27.508Z,34.10
2018-02-20T00:53:55.306Z,33.60
2018-02-20T00:56:23.129Z,34.10
2018-02-20T00:58:50.954Z,34.20
2018-02-20T01:01:18.735Z,33.60
2018-02-20T01:03:46.543Z,34.30
2018-02-20T01:06:14.325Z,34.30
2018-02-20T01:08:42.121Z,34.20
2018-02-20T01:11:10.015Z,34.00
2018-02-20T01:13:37.864Z,33.80
2018-02-20T01:16:05.678Z,34.00
2018-02-20T01:18:33.421Z,34.10
2018-02-20T01:21:01.274Z,34.20
2018-02-20T01:23:29.152Z,34.40
2018-02-20T01:25:56.916Z,34.30
2018-02-20T01:28:24.695Z,34.30
2018-02-20T01:30:52.469Z,35.10
2018-02-20T01:33:20.284Z,34.80
2018-02-20T01:35:48.086Z,34.90
2018-02-20T01:38:15.946Z,35.30
2018-02-20T01:40:43.724Z,35.30
2018-02-20T01:43:11.470Z,34.90
2018-02-20T01:45:39.300Z,34.80
2018-02-20T01:48:07.117Z,34.50
2018-02-20T01:50:34.852Z,34.60
2018-02-20T01:53:02.612Z,35.50
2018-02-20T01:55:30.462Z,34.90
2018-02-20T01:57:58.220Z,34.80
2018-02-20T02:00:26.023Z,34.50
2018-02-20T02:02:53.870Z,35.10
2018-02-20T02:05:21.689Z,34.50
2018-02-20T02:07:49.470Z,35.80
2018-02-20T02:10:17.286Z,35.00
2018-02-20T02:12:45.072Z,35.90
2018-02-20T02:15:12.831Z,36.00
2018-02-20T02:17:40.632Z,35.70
2018-02-20T02:20:08.457Z,35.70
2018-02-20T02:22:37.086Z,36.00
2018-02-20T02:25:04.916Z,36.60
2018-02-20T02:27:32.713Z,34.60
2018-02-20T02:30:00.517Z,37.60
2018-02-20T02:32:29.069Z,34.70
2018-02-20T02:34:56.950Z,34.70
2018-02-20T02:37:24.709Z,35.50
2018-02-20T02:39:52.574Z,35.10
2018-02-20T02:42:20.323Z,35.80
2018-02-20T02:47:22.160Z,35.70
2018-02-20T02:49:49.959Z,35.40
2018-02-20T02:52:17.731Z,35.40
2018-02-20T02:54:45.559Z,36.00
2018-02-20T02:57:13.369Z,36.60
2018-02-20T02:59:41.162Z,35.60
2018-02-20T03:02:08.945Z,36.10
2018-02-20T03:04:36.799Z,35.50
2018-02-20T03:07:04.592Z,35.90
2018-02-20T03:09:32.421Z,35.80
2018-02-20T03:12:00.287Z,36.10
2018-02-20T03:14:28.049Z,35.30
2018-02-20T03:16:55.811Z,36.00
2018-02-20T03:19:23.600Z,36.40
2018-02-20T03:21:51.350Z,36.40
2018-02-20T03:24:19.121Z,36.70
2018-02-20T03:26:46.894Z,36.70
2018-02-20T03:29:14.728Z,35.80
2018-02-20T03:31:42.575Z,35.90
2018-02-20T03:34:10.341Z,37.80
2018-02-20T03:36:38.154Z,35.90
2018-02-20T03:39:06.033Z,36.20
2018-02-20T03:41:33.771Z,35.70
2018-02-20T03:44:01.553Z,36.00
2018-02-20T03:46:29.316Z,36.90
2018-02-20T03:48:57.110Z,36.30
2018-02-20T03:51:24.909Z,36.30
2018-02-20T03:53:52.759Z,36.10
2018-02-20T03:56:20.549Z,37.90
2018-02-20T03:58:48.382Z,37.50
2018-02-20T04:01:16.150Z,38.60
2018-02-20T04:03:44.013Z,36.70
2018-02-20T04:06:11.828Z,37.00
2018-02-20T04:08:39.638Z,37.10
2018-02-20T04:11:07.411Z,35.50
2018-02-20T04:13:35.214Z,36.00
2018-02-20T04:16:02.973Z,34.90
2018-02-20T04:18:30.795Z,36.30
2018-02-20T04:20:58.576Z,37.50
2018-02-20T04:23:26.402Z,35.40
2018-02-20T04:25:54.204Z,36.90
2018-02-20T04:28:22.014Z,37.20
2018-02-20T04:30:49.846Z,36.90
2018-02-20T04:33:17.618Z,35.70
2018-02-20T04:35:45.384Z,37.50
2018-02-20T04:38:13.164Z,37.40
2018-02-20T04:40:40.971Z,35.90
2018-02-20T04:43:08.832Z,37.30
2018-02-20T04:45:36.652Z,36.00
2018-02-20T04:48:04.435Z,36.50
2018-02-20T04:50:32.347Z,37.40
2018-02-20T04:53:00.194Z,36.50
2018-02-20T04:55:27.958Z,35.90
2018-02-20T04:57:55.785Z,36.50
2018-02-20T05:00:23.561Z,36.60
2018-02-20T05:02:51.377Z,36.40
2018-02-20T05:05:19.182Z,37.00
2018-02-20T05:07:46.960Z,36.00
2018-02-20T05:10:14.711Z,36.10
2018-02-20T05:12:42.497Z,36.50
2018-02-20T05:15:10.327Z,36.90
2018-02-20T05:17:38.085Z,35.70
2018-02-20T05:20:05.855Z,36.70
2018-02-20T05:22:33.635Z,36.10
2018-02-20T05:25:02.226Z,37.00
2018-02-20T05:27:30.001Z,36.90
2018-02-20T05:29:57.768Z,35.70
2018-02-20T05:32:25.507Z,36.20
2018-02-20T05:34:53.231Z,37.70
2018-02-20T05:37:21.083Z,35.40
2018-02-20T05:39:48.812Z,35.30
2018-02-20T05:42:16.584Z,34.90
2018-02-20T05:44:44.450Z,35.30
2018-02-20T05:47:12.261Z,35.30
2018-02-20T05:49:40.063Z,35.80
2018-02-20T05:52:07.887Z,35.20
2018-02-20T05:54:35.611Z,35.00
2018-02-20T05:57:03.399Z,34.70
2018-02-20T05:59:31.220Z,35.70
2018-02-20T06:01:58.976Z,35.40
2018-02-20T06:04:26.826Z,34.50
2018-02-20T06:06:54.621Z,34.70
2018-02-20T06:09:22.366Z,34.50
2018-02-20T06:11:50.183Z,34.10
2018-02-20T06:14:18.738Z,35.20
2018-02-20T06:16:46.480Z,35.10
2018-02-20T06:19:14.322Z,33.90
2018-02-20T06:21:42.122Z,34.60
2018-02-20T06:24:09.903Z,35.50
2018-02-20T06:26:37.681Z,34.90
2018-02-20T06:29:05.491Z,33.70
2018-02-20T06:31:33.211Z,33.80
2018-02-20T06:34:02.181Z,35.00
2018-02-20T06:36:30.037Z,33.80
2018-02-20T06:38:57.823Z,33.30
2018-02-20T06:41:25.608Z,35.60
2018-02-20T06:43:54.202Z,33.70
2018-02-20T06:46:21.939Z,33.60
2018-02-20T06:48:49.694Z,32.80
2018-02-20T06:51:18.038Z,32.90
2018-02-20T06:53:45.850Z,33.00
2018-02-20T06:56:13.606Z,34.60
2018-02-20T06:58:41.933Z,33.00
2018-02-20T07:01:09.713Z,32.80
2018-02-20T07:03:37.444Z,34.30
2018-02-20T07:06:05.315Z,34.10
2018-02-20T07:08:33.045Z,33.50
2018-02-20T07:11:00.860Z,33.80
2018-02-20T07:13:28.703Z,32.20
2018-02-20T07:15:56.558Z,31.90
2018-02-20T07:18:24.356Z,32.90
2018-02-20T07:20:52.108Z,32.60
2018-02-20T07:23:19.901Z,32.50
2018-02-20T07:25:47.734Z,33.30
2018-02-20T07:28:15.480Z,33.80
2018-02-20T07:30:43.219Z,32.10
2018-02-20T07:33:11.016Z,32.70
2018-02-20T07:35:38.905Z,32.60
2018-02-20T07:38:06.797Z,31.90
2018-02-20T07:40:34.567Z,32.50
2018-02-20T07:43:03.088Z,32.20
2018-02-20T07:45:30.876Z,32.20
2018-02-20T07:47:59.432Z,31.70
2018-02-20T07:50:27.297Z,31.70
2018-02-20T07:52:55.080Z,30.90
2018-02-20T07:55:22.917Z,31.50
2018-02-20T07:57:50.717Z,31.70
2018-02-20T08:00:18.573Z,31.10
2018-02-20T08:02:46.380Z,31.40
2018-02-20T08:05:14.179Z,30.80
2018-02-20T08:07:41.911Z,30.60
2018-02-20T08:10:09.765Z,31.00
2018-02-20T08:12:37.541Z,31.40
2018-02-20T08:15:09.325Z,30.20
2018-02-20T08:17:37.098Z,30.80
2018-02-20T08:20:05.705Z,34.50
2018-02-20T08:22:33.548Z,34.50
2018-02-20T08:25:01.279Z,29.60
2018-02-20T08:27:29.033Z,29.90
2018-02-20T08:29:56.803Z,29.70
2018-02-20T08:32:24.546Z,29.80
2018-02-20T08:34:52.370Z,27.20
2018-02-20T08:37:20.165Z,29.90
2018-02-20T08:39:48.687Z,29.30
2018-02-20T08:42:16.505Z,29.20
2018-02-20T08:44:44.297Z,28.40
2018-02-20T08:47:12.132Z,30.20
2018-02-20T08:49:39.879Z,30.50
2018-02-20T08:52:07.633Z,29.90
2018-02-20T08:54:35.459Z,28.10
2018-02-20T08:57:03.330Z,29.40
2018-02-20T08:59:31.108Z,29.30
2018-02-20T09:01:58.859Z,29.60
2018-02-20T09:04:26.626Z,30.60
2018-02-20T09:06:54.401Z,30.10
2018-02-20T09:09:22.137Z,30.00
2018-02-20T09:11:49.878Z,29.20
2018-02-20T09:14:17.683Z,30.50
2018-02-20T09:16:46.243Z,30.00
2018-02-20T09:19:13.977Z,30.00
2018-02-20T09:21:41.815Z,28.90
2018-02-20T09:24:09.552Z,28.80
2018-02-20T09:26:37.313Z,33.00
2018-02-20T09:29:05.680Z,31.00
2018-02-20T09:31:33.426Z,31.40
2018-02-20T09:34:01.168Z,29.00
2018-02-20T09:36:28.970Z,30.10
2018-02-20T09:38:56.773Z,27.60
2018-02-20T09:41:24.528Z,28.40
2018-02-20T09:43:52.326Z,29.60
2018-02-20T09:46:20.159Z,30.30
2018-02-20T09:48:48.031Z,29.70
2018-02-20T09:51:15.850Z,30.00
2018-02-20T09:53:43.766Z,30.00
2018-02-20T09:56:11.585Z,29.60
2018-02-20T09:58:39.470Z,29.50
2018-02-20T10:01:07.369Z,30.40
2018-02-20T10:03:35.257Z,32.50
2018-02-20T10:06:04.268Z,29.70
2018-02-20T10:08:41.239Z,29.90
2018-02-20T10:11:09.860Z,28.70
2018-02-20T10:13:38.850Z,30.00
2018-02-20T10:16:07.858Z,29.40
2018-02-20T10:18:58.695Z,28.70
2018-02-20T10:21:26.569Z,29.30
2018-02-20T10:23:54.381Z,32.00
2018-02-20T10:26:22.259Z,29.60
2018-02-20T10:28:50.082Z,30.40
2018-02-20T10:31:17.948Z,29.30
2018-02-20T10:33:45.783Z,31.50
2018-02-20T10:36:14.544Z,31.50
2018-02-20T10:38:42.424Z,30.70
2018-02-20T10:41:10.358Z,30.70
2018-02-20T10:43:39.439Z,30.40
2018-02-20T10:46:07.339Z,29.10
2018-02-20T10:48:35.181Z,29.90
2018-02-20T10:51:02.982Z,28.50
2018-02-20T10:53:30.777Z,28.00
2018-02-20T10:55:58.643Z,27.40
2018-02-20T10:58:27.093Z,26.90
2018-02-20T11:00:55.797Z,29.20
2018-02-20T11:03:32.207Z,28.30
2018-02-20T11:06:00.160Z,28.30
2018-02-20T11:08:28.018Z,27.80
2018-02-20T11:10:56.750Z,29.60
2018-02-20T11:13:25.561Z,30.60
2018-02-20T11:15:56.294Z,29.50
2018-02-20T11:18:24.788Z,27.60
2018-02-20T11:20:53.441Z,28.40
2018-02-20T11:23:22.321Z,28.40
2018-02-20T11:25:50.235Z,29.00
2018-02-20T11:28:18.126Z,26.70
2018-02-20T11:30:45.949Z,28.50
2018-02-20T11:33:13.943Z,29.20
2018-02-20T11:35:42.669Z,29.40
2018-02-20T11:38:10.486Z,29.40
2018-02-20T11:40:38.342Z,28.00
2018-02-20T11:43:06.286Z,27.80
2018-02-20T11:45:34.163Z,26.30
2018-02-20T11:48:02.056Z,27.80
2018-02-20T11:50:29.899Z,27.60
2018-02-20T11:52:57.834Z,27.60
2018-02-20T11:55:25.678Z,29.50
2018-02-20T11:57:54.879Z,26.90
2018-02-20T12:00:22.727Z,26.90
2018-02-20T12:02:51.464Z,27.10
2018-02-20T12:05:20.238Z,24.50
2018-02-20T12:07:48.124Z,24.40
2018-02-20T12:10:16.989Z,24.60
2018-02-20T12:12:48.773Z,25.50
2018-02-20T12:15:16.726Z,28.40
2018-02-20T12:17:46.639Z,27.30
2018-02-20T12:20:16.121Z,26.00
2018-02-20T12:22:46.355Z,26.00
2018-02-20T12:25:14.324Z,26.60
2018-02-20T12:27:42.264Z,25.20
2018-02-20T12:30:11.151Z,27.10
2018-02-20T12:32:39.050Z,25.90
2018-02-20T12:35:06.930Z,24.20
2018-02-20T12:37:34.908Z,25.70
2018-02-20T12:40:02.857Z,25.80
2018-02-20T12:42:30.825Z,25.60
2018-02-20T12:44:59.211Z,26.30
2018-02-20T12:47:27.174Z,28.70
2018-02-20T12:49:55.090Z,27.50
2018-02-20T12:52:23.124Z,26.40
2018-02-20T12:54:51.034Z,26.70
2018-02-20T12:57:19.017Z,26.80
2018-02-20T12:59:48.433Z,28.60
2018-02-20T13:02:16.405Z,27.20
2018-02-20T13:04:44.445Z,28.10
2018-02-20T13:07:12.410Z,27.70
2018-02-20T13:09:40.402Z,27.30
2018-02-20T13:12:08.348Z,28.60
2018-02-20T13:14:36.271Z,27.20
2018-02-20T13:17:04.181Z,29.90
2018-02-20T13:19:32.199Z,28.40
2018-02-20T13:22:01.430Z,27.90
2018-02-20T13:24:29.397Z,28.40
2018-02-20T13:26:57.310Z,29.30
2018-02-20T13:29:25.982Z,28.00
2018-02-20T13:31:54.745Z,28.00
2018-02-20T13:34:22.604Z,28.40
2018-02-20T13:36:50.478Z,27.60
2018-02-20T13:39:18.369Z,27.80
2018-02-20T13:41:46.416Z,31.70
2018-02-20T13:44:14.545Z,28.00
2018-02-20T13:46:42.524Z,29.30
2018-02-20T13:49:13.103Z,27.90
2018-02-20T13:51:40.952Z,28.00
2018-02-20T13:54:08.923Z,31.10
2018-02-20T13:56:36.906Z,28.40
2018-02-20T13:59:04.818Z,29.20
2018-02-20T14:01:32.721Z,28.10
2018-02-20T14:04:03.725Z,28.90
2018-02-20T14:06:33.017Z,28.10
2018-02-20T14:09:02.124Z,31.60
2018-02-20T14:11:38.803Z,30.20
2018-02-20T14:14:11.960Z,28.80
2018-02-20T14:16:39.931Z,32.00
2018-02-20T14:19:07.844Z,29.60
2018-02-20T14:21:38.652Z,29.10
2018-02-20T14:24:09.783Z,27.90
2018-02-20T14:26:38.011Z,29.30
2018-02-20T14:29:06.049Z,29.80
2018-02-20T14:31:35.908Z,29.20
2018-02-20T14:34:04.726Z,29.50
2018-02-20T14:36:37.372Z,29.40
2018-02-20T14:39:07.595Z,29.80
2018-02-20T14:41:35.593Z,29.50
2018-02-20T14:44:04.372Z,29.70
2018-02-20T14:46:33.603Z,30.60
2018-02-20T14:49:01.598Z,30.50
2018-02-20T14:51:31.491Z,29.60
2018-02-20T14:53:59.524Z,30.40
2018-02-20T14:56:28.199Z,29.50
2018-02-20T14:59:01.351Z,29.50
2018-02-20T15:01:29.478Z,30.40
2018-02-20T15:03:59.438Z,30.50
2018-02-20T15:06:27.325Z,30.40
2018-02-20T15:09:06.036Z,30.00
2018-02-20T15:11:37.683Z,30.30
2018-02-20T15:14:06.627Z,30.90
2018-02-20T15:16:34.567Z,30.50
2018-02-20T15:19:02.576Z,29.80
2018-02-20T15:21:30.433Z,30.30
2018-02-20T15:23:58.942Z,31.80
2018-02-20T15:29:12.881Z,30.00
2018-02-20T15:31:40.786Z,29.80
2018-02-20T15:34:09.570Z,30.10
2018-02-20T15:36:43.035Z,32.10
2018-02-20T15:39:17.786Z,32.10
2018-02-20T15:41:45.790Z,29.80
2018-02-20T15:44:14.437Z,29.70
2018-02-20T15:46:43.309Z,30.50
2018-02-20T15:49:12.774Z,29.50
2018-02-20T15:51:42.851Z,30.20
2018-02-20T15:54:10.969Z,29.90
2018-02-20T15:56:39.057Z,29.40
2018-02-20T15:59:06.950Z,30.00
2018-02-20T16:01:34.954Z,30.20
2018-02-20T16:04:03.620Z,30.50
2018-02-20T16:06:31.507Z,30.50
2018-02-20T16:09:00.222Z,30.00
2018-02-20T16:11:28.073Z,30.70
2018-02-20T16:14:09.177Z,30.50
2018-02-20T16:16:37.799Z,30.00
2018-02-20T16:19:07.606Z,30.00
2018-02-20T16:21:38.309Z,30.00
2018-02-20T16:24:06.193Z,30.40
2018-02-20T16:26:34.028Z,30.00
2018-02-20T16:29:02.844Z,30.70
2018-02-20T16:31:30.700Z,30.40
2018-02-20T16:33:58.609Z,30.60
2018-02-20T16:36:26.478Z,30.70
2018-02-20T16:38:55.552Z,30.30
2018-02-20T16:41:23.378Z,30.10
2018-02-20T16:43:51.338Z,29.80
2018-02-20T16:46:23.055Z,29.20
2018-02-20T16:48:51.702Z,30.30
2018-02-20T16:51:19.727Z,30.60
2018-02-20T16:53:55.775Z,28.90
2018-02-20T16:56:25.309Z,30.00
2018-02-20T16:58:56.961Z,30.00
2018-02-20T17:01:24.734Z,29.20
2018-02-20T17:03:52.544Z,30.00
2018-02-20T17:06:20.427Z,30.20
2018-02-20T17:08:48.284Z,30.10
2018-02-20T17:11:16.092Z,30.30
2018-02-20T17:13:44.010Z,29.40
2018-02-20T17:16:16.688Z,29.70
2018-02-20T17:18:44.431Z,30.30
2018-02-20T17:21:12.164Z,29.30
2018-02-20T17:23:41.404Z,30.30
2018-02-20T17:26:12.937Z,30.30
2018-02-20T17:28:40.693Z,29.70
2018-02-20T17:31:08.454Z,29.30
2018-02-20T17:33:36.263Z,30.60
2018-02-20T17:36:04.010Z,30.00
2018-02-20T17:38:31.854Z,31.30
2018-02-20T17:40:59.654Z,32.20
2018-02-20T17:43:27.462Z,30.00
2018-02-20T17:45:55.223Z,28.80
2018-02-20T17:48:23.041Z,30.30
2018-02-20T17:50:51.953Z,29.20
2018-02-20T17:53:19.740Z,28.90
2018-02-20T17:55:47.464Z,30.60
2018-02-20T17:58:15.239Z,30.00
2018-02-20T18:00:42.975Z,29.10
2018-02-20T18:03:11.527Z,33.00
2018-02-20T18:05:39.347Z,33.00
2018-02-20T18:08:30.482Z,29.20
2018-02-20T18:10:59.201Z,29.10
2018-02-20T18:13:27.040Z,29.50
2018-02-20T18:15:54.848Z,30.00
2018-02-20T18:18:22.836Z,30.50
2018-02-20T18:20:50.642Z,30.40
2018-02-20T18:23:18.414Z,31.00
2018-02-20T18:25:46.160Z,31.30
2018-02-20T18:28:15.504Z,32.00
2018-02-20T18:30:43.337Z,31.90
2018-02-20T18:33:11.089Z,33.30
2018-02-20T18:35:38.852Z,31.30
2018-02-20T18:38:06.611Z,32.70
2018-02-20T18:40:34.393Z,34.30
2018-02-20T18:43:02.251Z,33.50
2018-02-20T18:45:30.347Z,31.30
2018-02-20T18:47:58.187Z,33.00
2018-02-20T18:50:26.086Z,31.40
2018-02-20T18:52:53.903Z,31.80
2018-02-20T18:55:21.771Z,30.60
2018-02-20T18:57:49.687Z,33.10
2018-02-20T19:00:17.444Z,31.90
2018-02-20T19:02:50.429Z,32.00
2018-02-20T19:05:18.316Z,31.90
2018-02-20T19:07:46.138Z,36.60
2018-02-20T19:10:13.920Z,31.50
2018-02-20T19:12:43.534Z,34.60
2018-02-20T19:15:11.427Z,32.20
2018-02-20T19:17:42.401Z,34.10
2018-02-20T19:20:10.362Z,31.90
2018-02-20T19:22:38.192Z,33.70
2018-02-20T19:25:06.192Z,33.80
2018-02-20T19:27:33.936Z,33.00
2018-02-20T19:30:01.768Z,33.10
2018-02-20T19:32:29.569Z,33.20
2018-02-20T19:34:57.378Z,32.50
2018-02-20T19:37:25.290Z,32.50
2018-02-20T19:39:53.032Z,34.50
2018-02-20T19:42:20.838Z,32.00
2018-02-20T19:44:48.600Z,32.70
2018-02-20T19:47:16.382Z,33.50
2018-02-20T19:49:44.142Z,34.50
2018-02-20T19:52:11.944Z,34.00
2018-02-20T19:54:39.678Z,34.40
2018-02-20T19:57:07.521Z,34.00
2018-02-20T19:59:35.306Z,34.30
2018-02-20T20:02:03.116Z,33.20
2018-02-20T20:04:30.930Z,32.60
2018-02-20T20:06:58.732Z,34.20
2018-02-20T20:09:26.568Z,33.10
2018-02-20T20:11:55.127Z,34.40
2018-02-20T20:14:22.904Z,34.30
2018-02-20T20:16:50.830Z,33.10
2018-02-20T20:19:18.726Z,34.70
2018-02-20T20:21:46.510Z,34.80
2018-02-20T20:24:15.802Z,33.50
2018-02-20T20:26:43.660Z,32.40
2018-02-20T20:29:11.419Z,34.60
2018-02-20T20:31:39.211Z,32.90
2018-02-20T20:34:07.066Z,35.90
2018-02-20T20:36:34.885Z,34.40
2018-02-20T20:39:04.910Z,34.00
2018-02-20T20:41:34.283Z,32.20
2018-02-20T20:44:03.288Z,32.60
2018-02-20T20:46:31.129Z,32.60
2018-02-20T20:48:58.930Z,32.50
2018-02-20T20:51:26.842Z,34.00
2018-02-20T20:53:54.627Z,33.30
2018-02-20T20:56:22.382Z,33.40
2018-02-20T20:58:50.139Z,32.60
2018-02-20T21:01:17.967Z,34.00
2018-02-20T21:03:45.724Z,33.20
2018-02-20T21:06:13.535Z,36.30
2018-02-20T21:08:42.847Z,34.10
2018-02-20T21:11:11.242Z,34.00
2018-02-20T21:13:39.033Z,33.20
2018-02-20T21:16:06.940Z,32.40
2018-02-20T21:18:34.769Z,32.90
2018-02-20T21:21:02.729Z,34.20
2018-02-20T21:23:30.762Z,33.90
2018-02-20T21:25:59.478Z,34.00
2018-02-20T21:28:27.286Z,35.00
2018-02-20T21:30:55.141Z,35.00
2018-02-20T21:33:22.912Z,35.00
2018-02-20T21:35:50.746Z,33.10
2018-02-20T21:38:18.663Z,33.80
2018-02-20T21:40:46.539Z,35.70
2018-02-20T21:43:14.378Z,35.30
2018-02-20T21:45:42.253Z,33.50
2018-02-20T21:48:10.071Z,35.00
2018-02-20T21:50:37.817Z,36.00
2018-02-20T21:53:05.629Z,34.50
2018-02-20T21:55:33.415Z,33.80
2018-02-20T21:58:01.228Z,35.60
2018-02-20T22:00:29.116Z,34.70
2018-02-20T22:02:57.020Z,36.00
2018-02-20T22:05:24.864Z,34.60
2018-02-20T22:07:52.634Z,34.40
2018-02-20T22:10:20.486Z,34.50
2018-02-20T22:12:48.672Z,33.70
2018-02-20T22:15:16.598Z,33.60
2018-02-20T22:17:45.170Z,35.90
2018-02-20T22:20:13.018Z,35.80
2018-02-20T22:22:40.817Z,34.90
2018-02-20T22:25:09.410Z,34.80
2018-02-20T22:27:37.196Z,34.70
2018-02-20T22:30:05.007Z,35.70
2018-02-20T22:32:32.783Z,34.80
2018-02-20T22:35:00.610Z,35.60
2018-02-20T22:37:28.507Z,35.00
2018-02-20T22:39:56.304Z,34.60
2018-02-20T22:42:24.128Z,34.70
2018-02-20T22:44:51.970Z,36.40
2018-02-20T22:47:19.782Z,35.20
2018-02-20T22:49:47.584Z,34.40
2018-02-20T22:52:15.427Z,34.10
2018-02-20T22:54:43.278Z,35.40
2018-02-20T22:57:12.036Z,35.70
2018-02-20T22:59:40.577Z,34.20
2018-02-20T23:02:08.493Z,34.10
2018-02-20T23:04:36.369Z,35.50
2018-02-20T23:07:04.178Z,35.00
2018-02-20T23:09:31.991Z,34.70
2018-02-20T23:11:59.786Z,34.10
2018-02-20T23:14:27.654Z,34.70
2018-02-20T23:16:55.487Z,35.90
2018-02-20T23:19:24.035Z,34.50
2018-02-20T23:21:51.841Z,34.40
2018-02-20T23:24:20.965Z,36.30
2018-02-20T23:26:48.803Z,36.30
2018-02-20T23:29:16.574Z,34.70
2018-02-20T23:31:44.346Z,34.70
2018-02-20T23:34:12.117Z,35.90
2018-02-20T23:36:39.941Z,36.20
2018-02-20T23:39:07.791Z,35.50
2018-02-20T23:41:35.631Z,35.30
2018-02-20T23:44:03.431Z,34.60
2018-02-20T23:46:31.216Z,37.00
2018-02-20T23:48:59.039Z,36.80
2018-02-20T23:51:32.502Z,35.20
2018-02-20T23:54:00.333Z,36.70
2018-02-20T23:56:28.112Z,35.20
2018-02-20T23:58:55.897Z,35.30
